Time;durP1;ratioP1;P1;durP2;ratioP2;P2;SDS_P1;SDS_P2;PMS_P1;PMS_P2;Temp;Humidity;BMP_temperature;BMP_pressure;BME280_temperature;BME280_humidity;BME280_pressure;Samples;Min_cycle;Max_cycle;Signal;HPM_P1;HPM_P2
2022/12/14 00:01:35;;;;;;;20.40;11.25;;;-1.20;98.90;;;;;;5025867;28;20068;-65
2022/12/14 00:04:00;;;;;;;21.73;13.13;;;-1.20;98.90;;;;;;5027686;28;20489;-64
2022/12/14 00:06:28;;;;;;;21.30;11.88;;;-1.20;98.90;;;;;;5027052;28;20508;-64
2022/12/14 00:09:00;;;;;;;23.55;11.90;;;-1.20;98.90;;;;;;5026660;28;20404;-64
2022/12/14 00:11:26;;;;;;;19.08;10.90;;;-1.20;98.90;;;;;;5025830;28;20022;-64
2022/12/14 00:13:54;;;;;;;19.60;10.60;;;-1.30;98.90;;;;;;5027802;28;20060;-64
2022/12/14 00:16:20;;;;;;;18.70;10.82;;;-1.20;99.00;;;;;;5027134;28;20572;-64
2022/12/14 00:18:49;;;;;;;19.23;10.05;;;-1.20;98.90;;;;;;5024499;28;20493;-64
2022/12/14 00:21:15;;;;;;;17.30;9.70;;;-1.20;98.90;;;;;;5027221;28;20028;-64
2022/12/14 00:23:43;;;;;;;16.10;8.68;;;-1.20;98.90;;;;;;5025032;28;20029;-64
2022/12/14 00:26:10;;;;;;;15.05;7.93;;;-1.20;98.90;;;;;;5027417;28;20034;-64
2022/12/14 00:28:36;;;;;;;11.88;7.25;;;-1.20;98.90;;;;;;5025324;28;21089;-65
2022/12/14 00:31:02;;;;;;;17.95;9.48;;;-1.20;98.90;;;;;;5026889;28;20535;-65
2022/12/14 00:33:28;;;;;;;15.07;8.25;;;-1.20;98.80;;;;;;5024154;28;20046;-64
2022/12/14 00:35:53;;;;;;;15.23;8.75;;;-1.20;98.90;;;;;;5027739;28;20028;-64
2022/12/14 00:38:19;;;;;;;13.45;7.43;;;-1.20;98.80;;;;;;5026314;28;20100;-65
2022/12/14 00:40:44;;;;;;;11.93;6.93;;;-1.20;98.80;;;;;;5026433;28;20032;-64
2022/12/14 00:43:10;;;;;;;13.50;8.10;;;-1.20;98.70;;;;;;5024105;28;20026;-64
2022/12/14 00:45:35;;;;;;;12.65;6.78;;;-1.20;98.70;;;;;;5025445;28;20026;-64
2022/12/14 00:48:01;;;;;;;12.27;7.78;;;-1.20;98.70;;;;;;5026375;28;20087;-64
2022/12/14 00:50:26;;;;;;;13.20;6.95;;;-1.20;98.70;;;;;;5026497;28;20108;-65
2022/12/14 00:52:52;;;;;;;13.25;7.22;;;-1.30;98.60;;;;;;5024725;28;20030;-64
2022/12/14 00:55:17;;;;;;;13.82;7.10;;;-1.30;98.70;;;;;;5027784;28;20464;-64
2022/12/14 00:57:43;;;;;;;13.02;7.40;;;-1.30;98.70;;;;;;5027062;28;20493;-64
2022/12/14 01:00:09;;;;;;;14.18;7.20;;;-1.30;98.70;;;;;;5026056;28;20072;-64
2022/12/14 01:02:35;;;;;;;12.63;7.20;;;-1.30;98.70;;;;;;5027339;28;20026;-64
2022/12/14 01:05:00;;;;;;;13.68;7.65;;;-1.40;98.60;;;;;;5026719;28;20108;-64
2022/12/14 01:07:26;;;;;;;16.08;8.23;;;-1.40;98.70;;;;;;5025810;28;20546;-64
2022/12/14 01:09:51;;;;;;;12.65;7.47;;;-1.40;98.70;;;;;;5038918;28;20467;-65
2022/12/14 01:12:17;;;;;;;14.30;7.43;;;-1.40;98.70;;;;;;5024471;28;20072;-65
2022/12/14 01:14:42;;;;;;;16.33;8.30;;;-1.40;99.00;;;;;;5025795;28;20025;-64
2022/12/14 01:17:08;;;;;;;14.40;8.23;;;-1.40;98.90;;;;;;5026339;28;20100;-63
2022/12/14 01:19:33;;;;;;;16.40;9.15;;;-1.40;98.60;;;;;;5026382;28;20131;-64
2022/12/14 01:21:59;;;;;;;18.05;9.77;;;-1.40;98.60;;;;;;5025489;28;20017;-64
2022/12/14 01:24:25;;;;;;;18.63;10.05;;;-1.30;98.60;;;;;;5027444;28;20568;-63
2022/12/14 01:26:50;;;;;;;16.77;8.90;;;-1.40;98.50;;;;;;5025080;28;20208;-64
2022/12/14 01:29:16;;;;;;;14.52;8.88;;;-1.40;98.50;;;;;;5027914;28;20036;-64
2022/12/14 01:31:42;;;;;;;15.10;8.77;;;-1.40;98.50;;;;;;5028500;28;20032;-64
2022/12/14 01:34:08;;;;;;;17.80;10.07;;;-1.40;98.50;;;;;;5025886;28;20041;-64
2022/12/14 01:36:34;;;;;;;17.30;9.32;;;-1.40;98.50;;;;;;5023509;28;20084;-64
2022/12/14 01:39:04;;;;;;;16.77;9.27;;;-1.40;98.50;;;;;;5027167;28;20021;-64
2022/12/14 01:41:31;;;;;;;15.20;8.93;;;-1.40;98.60;;;;;;5027329;28;20021;-64
2022/12/14 01:43:59;;;;;;;17.23;8.52;;;-1.40;98.50;;;;;;5029191;28;20030;-64
2022/12/14 01:47:21;;;;;;;19.88;9.77;;;-1.50;98.50;;;;;;5026132;28;20049;-64
2022/12/14 01:50:07;;;;;;;16.08;8.98;;;-1.50;98.50;;;;;;5008452;28;20040;-64
2022/12/14 01:52:44;;;;;;;16.73;9.57;;;-1.40;98.60;;;;;;5007052;28;20033;-65
2022/12/14 01:55:16;;;;;;;18.25;10.00;;;-1.50;98.60;;;;;;5022339;28;20489;-64
2022/12/14 01:57:58;;;;;;;15.15;8.30;;;-1.50;98.60;;;;;;5029657;28;20033;-64
2022/12/14 02:00:23;;;;;;;14.77;8.68;;;-1.50;98.60;;;;;;5029338;28;20032;-64
2022/12/14 02:03:09;;;;;;;16.80;9.55;;;-1.50;98.70;;;;;;5030070;28;20033;-64
2022/12/14 02:05:38;;;;;;;14.43;9.40;;;-1.50;98.70;;;;;;5030881;28;20103;-64
2022/12/14 02:08:05;;;;;;;15.05;8.20;;;-1.50;98.70;;;;;;5026250;28;20033;-64
2022/12/14 02:10:31;;;;;;;15.55;8.95;;;-1.50;98.70;;;;;;5029438;28;20033;-65
2022/12/14 02:13:13;;;;;;;17.40;9.63;;;-1.50;98.70;;;;;;5026295;28;20017;-67
2022/12/14 02:15:39;;;;;;;13.65;7.50;;;-1.50;98.70;;;;;;5029613;28;20152;-65
2022/12/14 02:18:08;;;;;;;14.88;8.18;;;-1.50;98.70;;;;;;5029224;28;20036;-65
2022/12/14 02:21:04;;;;;;;17.00;9.10;;;-1.50;98.70;;;;;;5029472;28;20148;-64
2022/12/14 02:23:57;;;;;;;17.75;9.57;;;-1.40;98.70;;;;;;5026555;28;20029;-64
2022/12/14 02:26:57;;;;;;;17.92;10.25;;;-1.50;98.70;;;;;;5021377;28;20037;-65
2022/12/14 02:29:31;;;;;;;15.77;9.13;;;-1.50;98.70;;;;;;5027536;28;20033;-64
2022/12/14 02:32:17;;;;;;;17.65;9.20;;;-1.50;98.70;;;;;;5028395;28;20035;-64
2022/12/14 02:35:25;;;;;;;18.08;9.32;;;-1.50;98.70;;;;;;5029603;28;20505;-64
2022/12/14 02:38:27;;;;;;;17.10;9.27;;;-1.50;98.70;;;;;;5016967;28;20098;-64
2022/12/14 02:41:11;;;;;;;17.58;10.18;;;-1.50;98.70;;;;;;5026448;28;20041;-65
2022/12/14 02:43:54;;;;;;;15.65;8.93;;;-1.50;98.70;;;;;;5028585;28;20056;-64
2022/12/14 02:46:28;;;;;;;15.10;9.15;;;-1.60;98.60;;;;;;5029445;28;20095;-64
2022/12/14 02:49:19;;;;;;;12.57;7.28;;;-1.60;98.70;;;;;;5026070;28;20034;-64
2022/12/14 02:51:58;;;;;;;16.30;8.73;;;-1.50;98.70;;;;;;5026270;28;20520;-66
2022/12/14 02:54:37;;;;;;;16.35;8.88;;;-1.50;98.70;;;;;;5028461;28;20555;-64
2022/12/14 02:57:30;;;;;;;14.52;8.32;;;-1.50;98.70;;;;;;5028618;28;20400;-64
2022/12/14 02:59:59;;;;;;;14.82;8.50;;;-1.50;98.60;;;;;;5027155;28;20391;-64
2022/12/14 03:02:25;;;;;;;16.27;8.93;;;-1.50;98.60;;;;;;5029927;28;20017;-64
2022/12/14 03:04:51;;;;;;;14.70;8.40;;;-1.50;98.60;;;;;;5029094;28;20148;-64
2022/12/14 03:07:31;;;;;;;17.85;9.45;;;-1.50;98.60;;;;;;5030711;28;20505;-63
2022/12/14 03:10:15;;;;;;;16.02;9.73;;;-1.50;98.60;;;;;;5027482;28;20081;-64
2022/12/14 03:12:46;;;;;;;16.25;9.00;;;-1.50;98.60;;;;;;5028215;28;20056;-64
2022/12/14 03:15:14;;;;;;;14.70;8.52;;;-1.50;98.70;;;;;;5027666;28;20482;-64
2022/12/14 03:17:43;;;;;;;15.50;7.65;;;-1.50;98.70;;;;;;5026518;28;20136;-64
2022/12/14 03:20:14;;;;;;;14.02;7.60;;;-1.50;98.70;;;;;;5027765;28;20018;-63
2022/12/14 03:22:49;;;;;;;16.80;8.35;;;-1.40;98.70;;;;;;5026983;28;20421;-64
2022/12/14 03:25:21;;;;;;;14.48;7.60;;;-1.40;98.60;;;;;;5027613;28;20049;-64
2022/12/14 03:28:00;;;;;;;13.73;7.90;;;-1.50;98.60;;;;;;5024522;28;20098;-64
2022/12/14 03:30:29;;;;;;;18.20;9.00;;;-1.50;98.60;;;;;;5028837;28;20370;-65
2022/12/14 03:33:01;;;;;;;13.63;8.25;;;-1.50;98.60;;;;;;5026245;28;20054;-64
2022/12/14 03:35:43;;;;;;;13.68;7.68;;;-1.50;98.60;;;;;;5027044;28;20033;-64
2022/12/14 03:38:37;;;;;;;14.05;8.13;;;-1.50;98.70;;;;;;5025547;28;20029;-64
2022/12/14 03:41:12;;;;;;;16.52;8.90;;;-1.50;98.70;;;;;;5028013;28;20076;-64
2022/12/14 03:43:58;;;;;;;17.23;9.23;;;-1.50;98.70;;;;;;5025059;28;20080;-64
2022/12/14 03:47:01;;;;;;;16.38;9.02;;;-1.50;98.70;;;;;;5026267;28;20678;-64
2022/12/14 03:49:53;;;;;;;14.70;8.13;;;-1.60;98.70;;;;;;5016882;28;20041;-64
2022/12/14 03:52:33;;;;;;;14.00;8.23;;;-1.60;98.80;;;;;;5025843;28;20036;-65
2022/12/14 03:55:05;;;;;;;14.73;8.40;;;-1.60;98.80;;;;;;5023821;28;20092;-64
2022/12/14 03:57:42;;;;;;;16.58;9.23;;;-1.60;98.80;;;;;;5028833;28;20049;-64
2022/12/14 04:00:11;;;;;;;16.58;9.70;;;-1.60;98.80;;;;;;5025374;28;20022;-64
2022/12/14 04:03:03;;;;;;;15.95;8.77;;;-1.60;98.80;;;;;;5024721;28;20018;-65
2022/12/14 04:05:37;;;;;;;14.95;8.73;;;-1.60;98.80;;;;;;5033964;28;20436;-64
2022/12/14 04:08:21;;;;;;;14.75;8.43;;;-1.60;98.80;;;;;;5027388;28;20056;-64
2022/12/14 04:19:36;;;;;;;14.23;7.38;;;-1.60;98.80;;;;;;5026946;28;20083;-64
2022/12/14 04:22:10;;;;;;;13.50;7.60;;;-1.60;98.80;;;;;;5026565;28;20487;-65
2022/12/14 04:27:48;;;;;;;14.77;7.75;;;-1.60;98.70;;;;;;5027451;28;20036;-63
2022/12/14 04:30:14;;;;;;;11.85;7.00;;;-1.60;98.70;;;;;;5026065;28;20116;-64
2022/12/14 04:32:54;;;;;;;13.70;7.50;;;-1.60;98.70;;;;;;5040309;28;20663;-65
2022/12/14 04:35:32;;;;;;;13.55;7.32;;;-1.60;98.70;;;;;;5025339;28;20038;-64
2022/12/14 04:38:01;;;;;;;14.45;8.23;;;-1.60;98.60;;;;;;5027188;28;20033;-64
2022/12/14 04:40:46;;;;;;;13.75;9.05;;;-1.60;98.60;;;;;;5026510;28;20104;-64
2022/12/14 04:43:20;;;;;;;16.30;8.38;;;-1.60;98.70;;;;;;5026419;28;20013;-64
2022/12/14 04:45:57;;;;;;;14.60;7.30;;;-1.70;98.60;;;;;;5024530;28;20056;-66
2022/12/14 04:48:37;;;;;;;14.50;8.02;;;-1.70;98.60;;;;;;5026405;28;20493;-64
2022/12/14 04:51:30;;;;;;;13.82;7.63;;;-1.70;98.60;;;;;;5025114;28;20052;-64
2022/12/14 04:54:03;;;;;;;15.38;7.45;;;-1.70;98.60;;;;;;5025802;28;20029;-64
2022/12/14 04:56:38;;;;;;;15.02;8.18;;;-1.70;98.70;;;;;;5026369;28;20370;-64
2022/12/14 04:59:04;;;;;;;15.55;8.07;;;-1.70;98.60;;;;;;5025266;28;20599;-64
2022/12/14 05:01:48;;;;;;;18.40;8.95;;;-1.80;98.60;;;;;;5027302;28;20017;-64
2022/12/14 05:04:41;;;;;;;17.20;8.27;;;-1.80;98.50;;;;;;5026806;28;20021;-64
2022/12/14 05:07:51;;;;;;;13.85;6.72;;;-1.70;98.60;;;;;;5023816;28;20026;-64
2022/12/14 05:10:32;;;;;;;14.93;8.10;;;-1.80;98.50;;;;;;5024687;28;20030;-64
2022/12/14 05:13:01;;;;;;;15.60;7.85;;;-1.80;98.60;;;;;;5024243;28;20054;-64
2022/12/14 05:15:51;;;;;;;14.00;7.07;;;-1.80;98.80;;;;;;5022244;28;20060;-64
2022/12/14 05:18:17;;;;;;;17.87;8.70;;;-1.80;98.60;;;;;;5030618;28;20460;-64
2022/12/14 05:20:42;;;;;;;13.70;8.32;;;-1.80;98.50;;;;;;5028124;28;20036;-64
2022/12/14 05:23:08;;;;;;;13.43;7.53;;;-1.80;98.50;;;;;;5028720;28;20393;-64
2022/12/14 05:25:34;;;;;;;11.90;6.97;;;-1.80;98.60;;;;;;5030347;28;20033;-64
2022/12/14 05:27:59;;;;;;;14.55;7.55;;;-1.80;98.60;;;;;;5029526;28;20036;-64
2022/12/14 05:30:25;;;;;;;14.07;7.38;;;-1.80;98.50;;;;;;5028031;28;20029;-64
2022/12/14 05:32:52;;;;;;;13.48;7.05;;;-1.80;98.60;;;;;;5030121;28;20033;-63
2022/12/14 05:35:17;;;;;;;14.30;8.70;;;-1.80;98.60;;;;;;5030661;28;20434;-63
2022/12/14 05:37:43;;;;;;;15.02;7.82;;;-1.90;98.50;;;;;;5028109;28;20021;-64
2022/12/14 05:40:09;;;;;;;15.95;7.50;;;-1.90;98.60;;;;;;5029502;28;20449;-64
2022/12/14 05:42:35;;;;;;;13.93;7.65;;;-1.90;98.60;;;;;;5028136;28;20396;-64
2022/12/14 05:45:00;;;;;;;13.60;7.25;;;-1.90;98.60;;;;;;5030312;28;20041;-63
2022/12/14 05:47:26;;;;;;;11.23;6.78;;;-1.90;98.50;;;;;;5026517;28;20030;-63
2022/12/14 05:49:52;;;;;;;13.27;7.15;;;-1.90;98.60;;;;;;5028900;28;20033;-64
2022/12/14 05:52:18;;;;;;;12.32;6.93;;;-1.90;98.60;;;;;;5027906;28;20026;-64
2022/12/14 05:54:43;;;;;;;13.75;7.47;;;-1.90;98.50;;;;;;5029994;28;20477;-64
2022/12/14 05:57:09;;;;;;;14.45;7.72;;;-1.90;98.60;;;;;;5027629;28;20116;-63
2022/12/14 05:59:35;;;;;;;13.45;7.28;;;-2.00;98.50;;;;;;5028780;28;20026;-63
2022/12/14 06:02:00;;;;;;;13.15;6.90;;;-2.00;98.60;;;;;;5030615;28;20025;-64
2022/12/14 06:04:26;;;;;;;11.15;6.72;;;-2.00;98.60;;;;;;5032724;28;20033;-64
2022/12/14 06:06:52;;;;;;;11.00;6.35;;;-2.00;98.60;;;;;;5032005;28;20025;-64
2022/12/14 06:09:17;;;;;;;11.65;6.65;;;-2.00;98.60;;;;;;5033285;28;20037;-63
2022/12/14 06:11:45;;;;;;;12.65;7.13;;;-2.00;98.60;;;;;;5032460;28;20029;-64
2022/12/14 06:14:11;;;;;;;13.65;7.57;;;-2.00;98.60;;;;;;5034208;28;20068;-64
2022/12/14 06:16:40;;;;;;;12.73;7.25;;;-2.00;98.60;;;;;;5031842;28;20013;-63
2022/12/14 06:19:06;;;;;;;13.07;7.00;;;-2.00;98.60;;;;;;5031727;28;20021;-64
2022/12/14 06:21:34;;;;;;;14.50;7.65;;;-2.00;98.60;;;;;;5030516;28;20017;-64
2022/12/14 06:24:01;;;;;;;12.35;6.88;;;-2.00;98.60;;;;;;5032148;28;20168;-64
2022/12/14 06:26:28;;;;;;;11.30;6.72;;;-2.00;98.60;;;;;;5029444;28;20049;-64
2022/12/14 06:28:55;;;;;;;13.15;7.18;;;-2.00;98.60;;;;;;5022868;28;20022;-63
2022/12/14 06:31:23;;;;;;;14.95;7.10;;;-2.00;98.80;;;;;;5018447;28;20542;-64
2022/12/14 06:33:49;;;;;;;14.55;7.90;;;-2.00;98.60;;;;;;5023651;28;20041;-63
2022/12/14 06:36:23;;;;;;;16.60;8.85;;;-2.00;98.50;;;;;;5025507;28;20033;-63
2022/12/14 06:38:53;;;;;;;18.05;9.05;;;-2.10;98.50;;;;;;5026657;28;20566;-64
2022/12/14 06:41:20;;;;;;;14.13;7.72;;;-2.10;98.50;;;;;;5027491;28;20026;-64
2022/12/14 06:43:45;;;;;;;12.07;7.07;;;-2.10;98.50;;;;;;5025797;28;20034;-64
2022/12/14 06:46:14;;;;;;;14.07;7.97;;;-2.20;98.50;;;;;;5029852;28;20032;-64
2022/12/14 06:48:40;;;;;;;13.95;7.78;;;-2.20;98.50;;;;;;5030312;28;20021;-63
2022/12/14 06:51:06;;;;;;;13.73;8.07;;;-2.20;98.50;;;;;;5031784;28;20393;-63
2022/12/14 06:53:32;;;;;;;15.23;8.02;;;-2.20;98.50;;;;;;5031108;28;20049;-63
2022/12/14 06:56:18;;;;;;;13.45;7.65;;;-2.30;98.40;;;;;;5029102;28;20114;-64
2022/12/14 06:58:44;;;;;;;13.95;7.63;;;-2.30;98.40;;;;;;5031281;28;20503;-63
2022/12/14 07:01:13;;;;;;;13.23;7.35;;;-2.30;98.50;;;;;;5033029;28;20481;-64
2022/12/14 07:03:38;;;;;;;14.10;6.82;;;-2.30;98.40;;;;;;5032289;28;20025;-63
2022/12/14 07:06:05;;;;;;;16.42;8.07;;;-2.30;98.40;;;;;;5032992;28;20036;-64
2022/12/14 07:08:34;;;;;;;15.98;7.85;;;-2.40;98.30;;;;;;5032605;28;20492;-63
2022/12/14 07:11:04;;;;;;;12.32;7.03;;;-2.40;98.30;;;;;;5031792;28;20021;-63
2022/12/14 07:13:30;;;;;;;13.30;7.25;;;-2.40;98.30;;;;;;5013292;28;20061;-64
2022/12/14 07:15:57;;;;;;;13.40;7.35;;;-2.50;98.30;;;;;;5015699;28;20454;-64
2022/12/14 07:18:24;;;;;;;14.27;6.63;;;-2.40;98.30;;;;;;5022452;28;20026;-64
2022/12/14 07:21:04;;;;;;;14.73;7.43;;;-2.50;98.30;;;;;;5013090;28;20033;-64
2022/12/14 07:23:32;;;;;;;15.15;7.97;;;-2.50;98.20;;;;;;5024966;28;20100;-63
2022/12/14 07:26:03;;;;;;;15.20;7.40;;;-2.50;98.10;;;;;;5019566;28;20076;-64
2022/12/14 07:28:29;;;;;;;13.55;7.65;;;-2.60;98.10;;;;;;5032784;28;20025;-64
2022/12/14 07:30:55;;;;;;;15.23;8.13;;;-2.60;98.10;;;;;;5013048;28;20061;-64
2022/12/14 07:33:21;;;;;;;13.32;6.97;;;-2.60;98.10;;;;;;5012350;28;20104;-63
2022/12/14 07:35:46;;;;;;;12.35;6.95;;;-2.60;98.10;;;;;;5031205;28;20037;-64
2022/12/14 07:38:12;;;;;;;14.63;7.70;;;-2.60;98.10;;;;;;5027215;28;20040;-63
2022/12/14 07:40:38;;;;;;;15.93;7.55;;;-2.70;98.10;;;;;;5028394;28;20108;-63
2022/12/14 07:43:03;;;;;;;15.07;7.47;;;-2.70;98.10;;;;;;5032632;28;20025;-63
2022/12/14 07:45:32;;;;;;;14.63;7.95;;;-2.70;98.00;;;;;;5017883;28;20502;-64
2022/12/14 07:47:57;;;;;;;14.95;7.68;;;-2.80;98.00;;;;;;5015061;28;20131;-64
2022/12/14 07:50:23;;;;;;;12.13;6.75;;;-2.80;98.00;;;;;;5024760;28;20104;-64
2022/12/14 07:52:48;;;;;;;13.73;6.97;;;-2.80;98.10;;;;;;5013461;28;20041;-64
2022/12/14 07:55:14;;;;;;;14.70;6.90;;;-2.80;98.10;;;;;;5014712;28;20488;-64
2022/12/14 07:57:40;;;;;;;11.73;6.70;;;-2.80;98.10;;;;;;5025436;28;20013;-63
2022/12/14 08:00:06;;;;;;;16.80;6.88;;;-2.90;98.00;;;;;;5023664;28;20033;-64
2022/12/14 08:02:31;;;;;;;12.70;6.72;;;-2.90;98.00;;;;;;5030349;28;20045;-64
2022/12/14 08:04:57;;;;;;;11.95;6.70;;;-2.90;98.00;;;;;;5022073;28;20498;-63
2022/12/14 08:07:22;;;;;;;15.68;7.18;;;-2.80;98.00;;;;;;5025840;28;20029;-64
2022/12/14 08:09:48;;;;;;;16.00;7.75;;;-2.90;98.00;;;;;;5023304;28;20032;-63
2022/12/14 08:12:13;;;;;;;14.10;7.90;;;-2.90;97.90;;;;;;5030058;28;20041;-64
2022/12/14 08:14:39;;;;;;;12.02;6.85;;;-3.00;98.00;;;;;;5023162;28;20029;-64
2022/12/14 08:17:04;;;;;;;12.32;6.20;;;-3.00;98.00;;;;;;5027671;28;20025;-64
2022/12/14 08:19:30;;;;;;;14.43;7.25;;;-3.00;98.00;;;;;;5025582;28;20028;-63
2022/12/14 08:21:55;;;;;;;12.95;6.60;;;-3.00;98.10;;;;;;5024588;28;20036;-64
2022/12/14 08:24:21;;;;;;;13.02;6.82;;;-3.10;98.10;;;;;;5027123;28;20029;-64
2022/12/14 08:26:46;;;;;;;14.73;7.13;;;-3.00;98.10;;;;;;5023290;28;20087;-63
2022/12/14 08:29:13;;;;;;;14.05;7.05;;;-3.10;98.10;;;;;;5024277;28;20038;-64
2022/12/14 08:31:39;;;;;;;16.15;8.27;;;-3.10;98.10;;;;;;5011060;28;20026;-63
2022/12/14 08:34:04;;;;;;;13.70;7.95;;;-3.10;98.10;;;;;;5011600;28;20050;-64
2022/12/14 08:36:33;;;;;;;14.80;7.70;;;-3.10;98.10;;;;;;5036713;28;20022;-65
2022/12/14 08:39:06;;;;;;;15.27;7.00;;;-3.10;98.10;;;;;;5041277;28;20032;-64
2022/12/14 08:41:33;;;;;;;15.70;7.82;;;-3.10;98.10;;;;;;5029566;28;20025;-64
2022/12/14 08:44:00;;;;;;;19.17;8.45;;;-3.10;98.00;;;;;;5027596;28;20029;-64
2022/12/14 08:46:28;;;;;;;17.25;8.10;;;-3.10;98.00;;;;;;5011585;28;20026;-64
2022/12/14 08:48:54;;;;;;;18.33;8.10;;;-3.10;98.00;;;;;;5023875;28;20061;-63
2022/12/14 08:51:21;;;;;;;16.55;7.57;;;-3.10;98.00;;;;;;5014229;28;20076;-64
2022/12/14 08:53:47;;;;;;;14.75;8.43;;;-3.10;98.00;;;;;;5019412;28;20053;-63
2022/12/14 08:56:16;;;;;;;18.30;9.50;;;-3.10;98.00;;;;;;5034829;28;20045;-64
2022/12/14 08:58:42;;;;;;;13.60;7.85;;;-3.10;98.10;;;;;;5021071;28;20028;-63
2022/12/14 09:01:10;;;;;;;19.00;8.35;;;-3.10;98.10;;;;;;5035145;28;20032;-63
2022/12/14 09:03:36;;;;;;;15.80;8.32;;;-3.10;98.10;;;;;;5017160;28;20014;-64
2022/12/14 09:06:03;;;;;;;15.57;7.95;;;-3.10;98.10;;;;;;5016695;28;20037;-63
2022/12/14 09:08:30;;;;;;;14.85;7.85;;;-3.10;98.10;;;;;;5030578;28;20021;-63
2022/12/14 09:10:56;;;;;;;18.13;8.60;;;-3.10;98.10;;;;;;5030035;28;20314;-64
2022/12/14 09:13:21;;;;;;;19.90;8.95;;;-3.00;98.10;;;;;;5025142;28;20029;-63
2022/12/14 09:15:55;;;;;;;18.95;8.00;;;-3.00;98.20;;;;;;5028025;28;20025;-63
2022/12/14 09:18:21;;;;;;;17.02;9.00;;;-2.90;98.20;;;;;;5036198;28;20064;-63
2022/12/14 09:20:46;;;;;;;18.67;9.80;;;-2.90;98.20;;;;;;5015353;28;20453;-63
2022/12/14 09:23:12;;;;;;;17.80;9.07;;;-2.80;98.20;;;;;;5030362;28;20032;-63
2022/12/14 09:25:38;;;;;;;14.02;7.85;;;-2.70;98.30;;;;;;5015193;28;20039;-64
2022/12/14 09:28:03;;;;;;;19.85;10.05;;;-2.70;98.30;;;;;;5015382;28;20033;-63
2022/12/14 09:30:29;;;;;;;18.75;9.32;;;-2.60;98.30;;;;;;5015823;28;20033;-63
2022/12/14 09:32:54;;;;;;;21.13;10.23;;;-2.50;98.20;;;;;;5014752;28;20127;-63
2022/12/14 09:35:21;;;;;;;17.60;8.93;;;-2.40;98.30;;;;;;5015351;28;20034;-63
2022/12/14 09:37:46;;;;;;;19.60;9.63;;;-2.30;98.30;;;;;;5020071;28;20025;-63
2022/12/14 09:40:13;;;;;;;21.58;9.77;;;-2.10;98.30;;;;;;5022434;28;20038;-63
2022/12/14 09:42:58;;;;;;;18.30;9.23;;;-2.00;98.30;;;;;;5029873;28;20481;-63
2022/12/14 09:45:40;;;;;;;14.80;7.78;;;-1.80;98.30;;;;;;5029856;28;20034;-63
2022/12/14 09:48:24;;;;;;;19.10;8.88;;;-1.50;98.50;;;;;;5029187;28;20029;-63
2022/12/14 09:50:51;;;;;;;16.08;8.20;;;-1.20;98.50;;;;;;5030189;28;20029;-63
2022/12/14 09:53:19;;;;;;;15.02;7.82;;;-0.50;98.40;;;;;;5032524;28;20038;-64
2022/12/14 09:55:48;;;;;;;14.88;8.05;;;0.10;97.50;;;;;;5033958;28;20064;-63
2022/12/14 09:58:17;;;;;;;15.25;8.07;;;0.60;96.80;;;;;;5030073;28;20026;-64
2022/12/14 10:00:48;;;;;;;11.63;7.10;;;1.00;96.40;;;;;;5029692;28;20021;-64
2022/12/14 10:03:32;;;;;;;12.48;7.05;;;1.40;96.30;;;;;;5029467;28;20041;-64
2022/12/14 10:06:15;;;;;;;11.55;6.68;;;2.00;95.80;;;;;;5032458;28;20018;-64
2022/12/14 10:08:51;;;;;;;11.95;6.88;;;2.40;95.30;;;;;;5033316;28;20018;-64
2022/12/14 10:11:41;;;;;;;11.00;6.03;;;3.10;95.00;;;;;;5021948;28;20457;-64
2022/12/14 10:14:07;;;;;;;;;;;3.80;94.60;;;;;;5016405;28;20084;-64
2022/12/14 10:16:55;;;;;;;12.25;8.30;;;4.60;94.10;;;;;;5013863;28;20324;-64
2022/12/14 10:19:23;;;;;;;11.43;6.55;;;5.00;92.10;;;;;;5013952;28;20141;-64
2022/12/14 10:22:05;;;;;;;12.98;7.05;;;5.00;91.90;;;;;;5033220;28;20117;-64
2022/12/14 10:24:41;;;;;;;11.48;7.53;;;5.50;91.50;;;;;;5027415;28;20399;-64
2022/12/14 10:27:08;;;;;;;11.55;6.55;;;5.70;90.90;;;;;;5027989;28;20031;-64
2022/12/14 10:29:40;;;;;;;10.35;6.47;;;5.70;90.60;;;;;;5019120;28;20099;-64
2022/12/14 10:32:31;;;;;;;13.60;7.55;;;5.90;90.30;;;;;;5030005;28;20388;-64
2022/12/14 10:34:59;;;;;;;13.70;8.27;;;6.00;88.60;;;;;;5032621;28;20139;-64
2022/12/14 10:37:32;;;;;;;12.65;7.85;;;5.90;88.40;;;;;;5027893;28;20049;-63
2022/12/14 10:40:36;;;;;;;10.88;6.85;;;6.00;88.00;;;;;;5032887;28;20037;-64
2022/12/14 10:43:17;;;;;;;11.25;7.13;;;6.00;87.30;;;;;;5028973;28;20075;-64
2022/12/14 10:45:58;;;;;;;12.48;7.82;;;6.10;87.50;;;;;;5030221;28;20037;-64
2022/12/14 10:48:36;;;;;;;14.60;8.63;;;6.50;86.10;;;;;;5018734;28;20038;-64
2022/12/14 10:51:24;;;;;;;13.27;7.85;;;6.50;85.00;;;;;;5042938;28;20030;-64
2022/12/14 10:54:21;;;;;;;12.85;8.45;;;6.90;82.70;;;;;;5026488;28;20473;-64
2022/12/14 10:56:48;;;;;;;13.60;8.00;;;7.60;80.50;;;;;;5013437;28;20119;-64
2022/12/14 10:59:17;;;;;;;12.45;7.28;;;8.10;78.30;;;;;;5017482;28;20110;-64
2022/12/14 11:01:44;;;;;;;13.68;7.10;;;8.00;77.90;;;;;;5014228;28;20022;-63
2022/12/14 11:04:31;;;;;;;12.10;7.85;;;7.90;78.70;;;;;;5016526;28;20034;-64
2022/12/14 11:07:00;;;;;;;10.02;7.15;;;7.90;78.30;;;;;;5014778;28;20620;-63
2022/12/14 11:09:26;;;;;;;11.10;6.43;;;8.20;78.80;;;;;;5019982;28;20025;-63
2022/12/14 11:12:02;;;;;;;10.10;7.57;;;9.00;77.80;;;;;;5025490;28;20401;-64
2022/12/14 11:14:28;;;;;;;10.95;6.72;;;9.40;75.40;;;;;;5026847;28;20025;-63
2022/12/14 11:16:54;;;;;;;13.13;8.10;;;9.70;74.70;;;;;;5020235;28;20040;-64
2022/12/14 11:19:23;;;;;;;9.52;6.82;;;10.00;74.10;;;;;;5014825;28;20101;-64
2022/12/14 11:22:02;;;;;;;11.87;7.07;;;10.50;72.80;;;;;;5015137;28;20464;-64
2022/12/14 11:24:28;;;;;;;10.90;6.90;;;11.00;71.50;;;;;;5012058;28;20335;-64
2022/12/14 11:27:00;;;;;;;12.13;8.00;;;11.30;70.00;;;;;;5017692;28;20041;-64
2022/12/14 11:29:30;;;;;;;10.15;6.55;;;11.50;67.90;;;;;;5012319;28;20068;-64
2022/12/14 11:31:56;;;;;;;11.98;6.82;;;11.60;67.20;;;;;;5029686;28;20033;-64
2022/12/14 11:34:39;;;;;;;12.13;7.15;;;11.60;67.00;;;;;;5010939;28;20088;-64
2022/12/14 11:37:29;;;;;;;9.75;6.68;;;12.10;65.80;;;;;;5025445;28;20029;-64
2022/12/14 11:39:57;;;;;;;9.00;5.85;;;12.90;64.70;;;;;;5012197;28;20022;-64
2022/12/14 11:42:23;;;;;;;8.85;6.50;;;13.60;63.20;;;;;;5012178;28;20034;-64
2022/12/14 11:44:50;;;;;;;9.05;6.30;;;14.40;61.50;;;;;;5027017;28;20120;-64
2022/12/14 11:47:22;;;;;;;9.38;6.00;;;15.20;60.20;;;;;;5015946;28;20014;-64
2022/12/14 11:49:53;;;;;;;8.88;6.22;;;16.60;58.10;;;;;;5020501;28;20080;-64
2022/12/14 11:52:21;;;;;;;7.65;5.82;;;17.90;55.90;;;;;;5012561;28;20527;-63
2022/12/14 11:54:53;;;;;;;7.22;5.40;;;19.30;53.50;;;;;;5012645;28;20458;-63
2022/12/14 11:57:25;;;;;;;8.52;5.78;;;20.60;51.00;;;;;;5013113;28;20438;-64
2022/12/14 11:59:55;;;;;;;8.35;6.15;;;21.80;48.50;;;;;;5024207;28;20025;-65
2022/12/14 12:02:52;;;;;;;9.15;6.82;;;22.70;46.30;;;;;;5023104;28;20022;-64
2022/12/14 12:05:20;;;;;;;8.80;6.47;;;23.70;44.40;;;;;;5015008;28;20715;-65
2022/12/14 12:07:49;;;;;;;7.82;5.53;;;24.40;43.20;;;;;;5026928;28;20503;-64
2022/12/14 12:10:21;;;;;;;7.75;6.07;;;25.00;41.50;;;;;;5029690;28;20073;-64
2022/12/14 12:12:51;;;;;;;8.35;6.15;;;25.50;40.50;;;;;;5026906;28;20033;-65
2022/12/14 12:15:35;;;;;;;7.85;6.18;;;25.90;39.10;;;;;;5011548;28;20497;-64
2022/12/14 12:18:20;;;;;;;7.47;6.32;;;26.20;38.50;;;;;;5024938;28;20386;-65
2022/12/14 12:21:00;;;;;;;8.77;6.45;;;26.40;37.70;;;;;;5016332;28;20025;-65
2022/12/14 12:23:38;;;;;;;7.97;6.47;;;26.60;36.90;;;;;;5017623;28;20056;-65
2022/12/14 12:26:54;;;;;;;7.03;6.13;;;26.80;36.20;;;;;;5016520;28;20489;-65
2022/12/14 12:29:37;;;;;;;6.68;5.65;;;27.00;35.40;;;;;;5027047;28;20064;-65
2022/12/14 12:32:20;;;;;;;6.05;5.45;;;27.10;34.70;;;;;;5016319;28;20366;-65
2022/12/14 12:35:04;;;;;;;8.32;5.20;;;27.20;34.70;;;;;;5012264;28;20117;-64
2022/12/14 12:37:49;;;;;;;6.38;4.97;;;27.50;33.60;;;;;;5014812;28;20490;-65
2022/12/14 12:40:30;;;;;;;6.95;5.93;;;27.70;33.30;;;;;;5023537;28;20028;-64
2022/12/14 12:43:25;;;;;;;6.50;5.80;;;27.80;32.70;;;;;;5010258;28;20088;-65
2022/12/14 12:46:17;;;;;;;7.95;5.72;;;27.90;32.50;;;;;;5010558;28;20041;-65
2022/12/14 12:48:47;;;;;;;7.10;5.80;;;28.20;32.40;;;;;;5013042;28;20177;-64
2022/12/14 12:51:22;;;;;;;6.88;6.18;;;28.20;32.00;;;;;;5036571;28;20529;-65
2022/12/14 12:53:54;;;;;;;7.90;6.78;;;28.10;31.80;;;;;;5022455;28;20033;-65
2022/12/14 12:56:42;;;;;;;8.95;7.05;;;28.00;31.60;;;;;;5018764;28;20057;-65
2022/12/14 12:59:17;;;;;;;7.22;6.53;;;27.90;31.10;;;;;;5023241;28;20049;-65
2022/12/14 13:01:46;;;;;;;6.72;6.03;;;28.00;31.40;;;;;;5025576;28;20032;-65
2022/12/14 13:04:46;;;;;;;9.40;6.20;;;28.10;31.00;;;;;;5018314;28;20022;-65
2022/12/14 13:07:29;;;;;;;6.30;5.70;;;27.90;30.50;;;;;;5022482;28;20034;-65
2022/12/14 13:10:18;;;;;;;9.20;5.32;;;28.10;30.50;;;;;;5023982;28;20018;-64
2022/12/14 13:12:53;;;;;;;;;;;28.30;30.20;;;;;;5016348;28;20038;-65
2022/12/14 13:15:39;;;;;;;5.72;5.22;;;28.40;30.50;;;;;;5021839;28;19916;-65
2022/12/14 13:18:23;;;;;;;6.45;5.40;;;28.50;30.10;;;;;;5018499;28;20026;-65